»·PEaware :: N982ZA KLGB-KBFL

N982ZA :: KLGB-KBFL

FLIGHT INFORMATION

Flight Status: Arrived
Operator: Privately registered:
United States
More flights under this callsign
Pilot: Anonymous 15639 (15639)
Aircraft: Unknown
(P28U)
More flights by this aircraft type
Origin: KLGB Long Beach
United States
Destination: KBFL Meadows
United States
More flights between these airports :: More routes between these airports
Route: +H200 RV ANAHM9 LHS FASTO2
File this flight plan on PilotEdge
Remarks:
Altitude:
(Current/Filed)
10,000ft
Speed:
(Current/Filed)
160kts
Departed: 11-Jan-18 04:05 PM
Arrived: 11-Jan-18 05:15 PM
Distance/Time
Traveled:
107nm/1:09
Distance/Time
To Go:
Arrived

Flight Plot

Page will automatically refresh every two minutes.

Flight plan parsing failed; only flown route is shown


Map Options




Map Legend


Flown Route
Filed Route
Departure Airport
Arrival Airport
Navaid (VOR, NDB)
Fix

Horizontal Profiles

Position Reports

Time Latitude Longitude Heading Altitude Ground
Speed
11-Jan-18 15:54 33.815500 -118.158153 271 63ft 0kts
11-Jan-18 15:55 33.815500 -118.158153 271 63ft 0kts
11-Jan-18 15:56 33.815500 -118.158153 271 63ft 0kts
11-Jan-18 15:57 33.815500 -118.158153 271 63ft 0kts
11-Jan-18 15:58 33.815500 -118.158153 271 63ft 0kts
11-Jan-18 15:59 33.815500 -118.158153 271 63ft 0kts
11-Jan-18 16:00 33.815500 -118.158153 271 63ft 0kts
11-Jan-18 16:01 33.815500 -118.158153 271 63ft 0kts
11-Jan-18 16:02 33.815332 -118.158387 214 63ft 0kts
11-Jan-18 16:03 33.815332 -118.158387 214 63ft 0kts
11-Jan-18 16:04 33.815192 -118.158444 180 63ft 0kts
11-Jan-18 16:05 33.814938 -118.156477 91 63ft 9kts
11-Jan-18 16:06 33.814945 -118.153494 90 63ft 10kts
11-Jan-18 16:07 33.814949 -118.150631 87 63ft 7kts
11-Jan-18 16:08 33.814570 -118.149323 134 63ft 0kts
11-Jan-18 16:09 33.814570 -118.149323 134 63ft 0kts
11-Jan-18 16:10 33.814053 -118.149069 200 63ft 10kts
11-Jan-18 16:11 33.814656 -118.170052 278 649ft 88kts
11-Jan-18 16:12 33.801936 -118.192431 212 1830ft 94kts
11-Jan-18 16:13 33.779622 -118.208762 212 2975ft 98kts
11-Jan-18 16:14 33.753165 -118.200857 142 3901ft 113kts
11-Jan-18 16:15 33.728394 -118.177803 141 4894ft 116kts
11-Jan-18 16:16 33.699071 -118.150396 142 4987ft 142kts
11-Jan-18 16:17 33.667202 -118.120979 141 4989ft 145kts
11-Jan-18 16:18 33.657930 -118.076741 82 5294ft 149kts
11-Jan-18 16:19 33.661893 -118.026722 81 5822ft 152kts
11-Jan-18 16:20 33.690099 -117.990487 31 5966ft 156kts
11-Jan-18 16:21 33.725739 -117.961390 31 5969ft 154kts
11-Jan-18 16:22 33.761053 -117.932497 30 5955ft 153kts
11-Jan-18 16:23 33.795965 -117.903934 30 5968ft 151kts
11-Jan-18 16:24 33.830515 -117.875744 31 5969ft 149kts
11-Jan-18 16:25 33.848688 -117.830778 67 5967ft 153kts
11-Jan-18 16:26 33.862562 -117.782679 64 5964ft 151kts
11-Jan-18 16:27 33.899566 -117.777955 352 6041ft 142kts
11-Jan-18 16:28 33.938490 -117.782218 355 6674ft 141kts
11-Jan-18 16:29 33.977828 -117.784386 355 7222ft 142kts
11-Jan-18 16:30 34.017746 -117.784858 356 7720ft 145kts
11-Jan-18 16:31 34.042714 -117.811984 280 8027ft 141kts
11-Jan-18 16:32 34.045045 -117.858598 279 8030ft 139kts
11-Jan-18 16:33 34.053226 -117.904400 286 8029ft 140kts
11-Jan-18 16:34 34.064552 -117.949427 289 8028ft 140kts
11-Jan-18 16:35 34.077031 -117.994251 290 8026ft 141kts
11-Jan-18 16:36 34.089931 -118.038882 291 8023ft 142kts
11-Jan-18 16:37 34.102118 -118.080761 293 8959ft 130kts
11-Jan-18 16:38 34.114278 -118.121276 293 9885ft 130kts
11-Jan-18 16:39 34.127435 -118.164892 293 10036ft 144kts
11-Jan-18 16:40 34.141244 -118.211574 293 10037ft 149kts
11-Jan-18 16:41 34.156317 -118.257235 319 10025ft 147kts
11-Jan-18 16:42 34.190515 -118.283116 331 10037ft 146kts
11-Jan-18 16:43 34.226314 -118.306320 332 10036ft 146kts
11-Jan-18 16:44 34.262698 -118.328236 333 10040ft 146kts
11-Jan-18 16:45 34.299119 -118.349874 334 10049ft 146kts
11-Jan-18 16:46 34.335560 -118.371431 334 10057ft 145kts
11-Jan-18 16:47 34.371951 -118.392754 334 10065ft 145kts
11-Jan-18 16:48 34.408330 -118.414152 334 10073ft 145kts
11-Jan-18 16:49 34.444783 -118.435675 334 10077ft 145kts
11-Jan-18 16:50 34.481178 -118.457065 334 10080ft 145kts
11-Jan-18 16:51 34.517578 -118.478531 334 10081ft 145kts
11-Jan-18 16:52 34.554031 -118.500114 334 10081ft 145kts
11-Jan-18 16:53 34.590508 -118.521756 334 10031ft 149kts
11-Jan-18 16:54 34.627464 -118.543711 334 10005ft 146kts
11-Jan-18 16:55 34.663818 -118.565523 333 10012ft 145kts
11-Jan-18 16:56 34.701709 -118.579825 358 10022ft 146kts
11-Jan-18 16:57 34.742415 -118.579735 357 10032ft 146kts
11-Jan-18 16:58 34.783149 -118.580469 356 10040ft 146kts
11-Jan-18 16:59 34.823592 -118.581583 356 10048ft 145kts
11-Jan-18 17:00 34.864080 -118.582498 356 10057ft 145kts
11-Jan-18 17:01 34.904464 -118.583575 355 10061ft 145kts
11-Jan-18 17:02 34.944808 -118.585351 342 10051ft 144kts
11-Jan-18 17:03 34.957513 -118.629650 283 10060ft 145kts
11-Jan-18 17:04 34.963977 -118.678168 282 10063ft 146kts
11-Jan-18 17:05 34.985520 -118.712675 338 10062ft 143kts
11-Jan-18 17:06 35.018961 -118.736704 312 10062ft 141kts
11-Jan-18 17:07 35.045080 -118.771619 312 9443ft 138kts
11-Jan-18 17:08 35.071245 -118.806142 312 8655ft 137kts
11-Jan-18 17:09 35.097952 -118.839758 312 7878ft 139kts
11-Jan-18 17:10 35.126399 -118.871939 328 7109ft 148kts
11-Jan-18 17:11 35.163776 -118.892444 329 6465ft 147kts
11-Jan-18 17:12 35.200614 -118.914761 329 5827ft 150kts
11-Jan-18 17:13 35.230805 -118.948423 311 5185ft 147kts
11-Jan-18 17:14 35.261355 -118.981255 352 4452ft 152kts
11-Jan-18 17:15 35.295471 -118.954364 39 3611ft 143kts
11-Jan-18 17:16 35.328152 -118.936504 324 2801ft 138kts
11-Jan-18 17:17 35.358746 -118.963940 314 2607ft 129kts
11-Jan-18 17:18 35.383130 -118.994621 311 1867ft 113kts
11-Jan-18 17:19 35.403519 -119.019431 315 1318ft 102kts
11-Jan-18 17:20 35.422127 -119.041893 312 770ft 93kts
11-Jan-18 17:21 35.435910 -119.058176 15 509ft 11kts
11-Jan-18 17:22 35.436332 -119.057532 84 509ft 0kts
11-Jan-18 17:23 35.434522 -119.054683 46 509ft 6kts
11-Jan-18 17:24 35.435676 -119.053468 169 509ft 0kts
11-Jan-18 17:25 35.435676 -119.053468 169 509ft 0kts

Navigation Log

Ident Type
Flight plan parsing failed, navigation log unavailable